Time;durP1;ratioP1;P1;durP2;ratioP2;P2;SDS_P1;SDS_P2;PMS_P1;PMS_P2;Temp;Humidity;BMP_temperature;BMP_pressure;BME280_temperature;BME280_humidity;BME280_pressure;Samples;Min_cycle;Max_cycle;Signal;HPM_P1;HPM_P2
2020/12/31 00:03:38;;;;;;;14.43;7.32;;;27.30;79.30;;;;;;6047674;23;20121;-94
2020/12/31 00:06:07;;;;;;;15.13;7.25;;;27.20;80.10;;;;;;6030746;23;20007;-92
2020/12/31 00:08:50;;;;;;;;;;;;;;;;;;;;;
2020/12/31 00:11:17;;;;;;;8.02;4.72;;;27.00;81.00;;;;;;6084155;23;20026;-94
2020/12/31 00:13:50;;;;;;;9.15;4.32;;;27.00;81.40;;;;;;6055735;23;19999;-94
2020/12/31 00:16:16;;;;;;;6.55;3.85;;;27.00;81.80;;;;;;6057131;23;20062;-92
2020/12/31 00:18:46;;;;;;;7.65;3.50;;;27.00;82.30;;;;;;6081779;23;19999;-93
2020/12/31 00:21:16;;;;;;;4.53;3.25;;;27.00;83.60;;;;;;6057236;23;19995;-93
2020/12/31 00:24:43;;;;;;;5.22;3.17;;;27.00;83.10;;;;;;6059221;23;19999;-94
2020/12/31 00:27:13;;;;;;;10.60;4.88;;;26.90;84.40;;;;;;6059621;23;20003;-93
2020/12/31 00:29:41;;;;;;;8.43;5.10;;;27.00;84.30;;;;;;6058007;23;20023;-92
2020/12/31 00:32:26;;;;;;;10.05;4.60;;;27.00;84.20;;;;;;6057591;23;20026;-91
2020/12/31 00:35:32;;;;;;;15.95;6.90;;;26.90;85.00;;;;;;6067177;23;20047;-94
2020/12/31 00:38:07;;;;;;;17.48;8.45;;;26.90;85.00;;;;;;6088905;23;20302;-93
2020/12/31 00:40:40;;;;;;;20.05;9.90;;;26.90;85.20;;;;;;6059657;23;20003;-92
2020/12/31 00:43:12;;;;;;;20.50;10.52;;;26.90;85.90;;;;;;6084193;23;20013;-93
2020/12/31 00:45:38;;;;;;;14.52;8.65;;;27.00;85.90;;;;;;6082241;23;20014;-91
2020/12/31 00:48:32;;;;;;;15.10;6.78;;;26.90;85.80;;;;;;6058491;23;20046;-92
2020/12/31 00:51:26;;;;;;;13.38;5.07;;;26.80;86.40;;;;;;6065050;23;20110;-92
2020/12/31 00:53:53;;;;;;;8.90;3.85;;;26.80;86.80;;;;;;6059294;23;20010;-91
2020/12/31 00:56:32;;;;;;;14.52;6.38;;;26.80;87.60;;;;;;6058825;23;20195;-93
2020/12/31 00:58:59;;;;;;;22.73;6.90;;;26.70;87.00;;;;;;6057001;23;20062;-92
2020/12/31 01:01:35;;;;;;;14.90;5.80;;;26.70;88.10;;;;;;6055526;23;20331;-94
2020/12/31 01:04:06;;;;;;;12.13;4.22;;;26.70;86.70;;;;;;6052351;23;20014;-90
2020/12/31 01:10:36;;;;;;;8.55;3.75;;;26.80;86.60;;;;;;6092339;23;20011;-93
2020/12/31 01:13:03;;;;;;;6.43;4.30;;;26.80;87.10;;;;;;6056767;23;20003;-91
2020/12/31 01:15:39;;;;;;;;;;;;;;;;;;;;;
2020/12/31 01:18:39;;;;;;;23.40;11.60;;;26.80;87.60;;;;;;6080852;23;20002;-93
2020/12/31 01:24:39;;;;;;;22.25;13.32;;;26.80;88.20;;;;;;6077896;23;20002;-92
2020/12/31 01:27:08;;;;;;;11.68;8.23;;;26.70;87.60;;;;;;6083422;23;19998;-93
2020/12/31 01:29:35;;;;;;;17.10;6.00;;;26.60;89.20;;;;;;6082997;23;20017;-91
2020/12/31 01:32:05;;;;;;;24.27;5.50;;;26.30;90.20;;;;;;6084566;23;20014;-91
2020/12/31 01:34:32;;;;;;;5.90;3.15;;;26.20;90.10;;;;;;6085081;23;20062;-92
2020/12/31 01:37:03;;;;;;;11.95;3.72;;;26.00;90.40;;;;;;6083907;23;20006;-93
2020/12/31 01:40:21;;;;;;;9.48;3.80;;;26.00;89.70;;;;;;6082503;23;20022;-92
2020/12/31 01:42:57;;;;;;;9.98;3.90;;;26.00;90.40;;;;;;6084833;23;20019;-89
2020/12/31 01:45:30;;;;;;;10.90;5.32;;;26.00;90.40;;;;;;6081759;23;20042;-91
2020/12/31 01:47:58;;;;;;;9.65;5.38;;;26.10;90.30;;;;;;6083988;23;20021;-90
2020/12/31 01:50:25;;;;;;;11.57;6.15;;;26.20;89.80;;;;;;6060487;23;20005;-90
2020/12/31 01:52:51;;;;;;;7.53;5.00;;;26.30;88.90;;;;;;6084519;23;19999;-91
2020/12/31 01:58:28;;;;;;;6.25;4.05;;;26.50;88.10;;;;;;6063656;23;20019;-91
2020/12/31 02:01:02;;;;;;;6.35;4.63;;;26.50;87.90;;;;;;6055179;23;20011;-92
2020/12/31 02:04:19;;;;;;;5.68;3.75;;;26.50;87.90;;;;;;6050150;23;20027;-93
2020/12/31 02:06:59;;;;;;;8.68;4.68;;;26.50;88.10;;;;;;6036678;23;20245;-92
2020/12/31 02:12:59;;;;;;;11.70;5.38;;;26.60;87.90;;;;;;6060580;23;20310;-94
2020/12/31 02:15:26;;;;;;;9.57;5.70;;;26.70;88.60;;;;;;6054664;23;20007;-92
2020/12/31 02:26:21;;;;;;;6.65;5.22;;;26.70;87.60;;;;;;6036246;23;20061;-92
2020/12/31 02:31:38;;;;;;;11.23;5.78;;;26.60;89.30;;;;;;6051544;23;20028;-93
2020/12/31 02:34:06;;;;;;;10.85;6.80;;;26.70;88.70;;;;;;6059548;23;20090;-93
2020/12/31 02:36:47;;;;;;;16.08;8.43;;;26.60;88.40;;;;;;6057990;23;20034;-94
2020/12/31 02:39:14;;;;;;;19.42;10.00;;;26.70;88.60;;;;;;6052260;23;19999;-90
2020/12/31 02:41:47;;;;;;;21.92;11.80;;;26.70;88.10;;;;;;6028045;23;20228;-89
2020/12/31 02:44:15;;;;;;;18.08;8.35;;;26.70;88.30;;;;;;6028018;23;20275;-90
2020/12/31 02:46:43;;;;;;;46.22;8.90;;;26.60;89.20;;;;;;6032442;23;20003;-91
2020/12/31 02:49:12;;;;;;;15.00;7.10;;;26.70;89.30;;;;;;6029137;23;20028;-91
2020/12/31 02:51:39;;;;;;;10.25;7.18;;;26.70;89.40;;;;;;6028484;23;19995;-93
2020/12/31 02:56:38;;;;;;;;;;;26.80;88.50;;;;;;6082868;23;20215;-89
2020/12/31 02:59:32;;;;;;;9.60;6.75;;;26.80;88.70;;;;;;6056232;23;19897;-90
2020/12/31 03:01:59;;;;;;;12.68;8.60;;;26.80;88.50;;;;;;6053006;23;20010;-92
2020/12/31 03:04:25;;;;;;;13.50;9.77;;;26.80;88.90;;;;;;6055412;23;20066;-91
2020/12/31 03:07:01;;;;;;;14.20;7.50;;;26.70;89.80;;;;;;6054856;23;20011;-91
2020/12/31 03:09:40;;;;;;;13.10;7.38;;;26.60;90.00;;;;;;6056990;23;20005;-94
2020/12/31 03:12:10;;;;;;;7.50;4.13;;;26.60;90.10;;;;;;6080922;23;20007;-92
2020/12/31 03:14:37;;;;;;;6.43;2.92;;;26.50;90.30;;;;;;6033292;23;20051;-94
2020/12/31 03:17:03;;;;;;;5.53;3.63;;;26.40;90.20;;;;;;6055656;23;20034;-93
2020/12/31 03:19:30;;;;;;;5.25;3.25;;;26.30;90.40;;;;;;6056061;23;20002;-93
2020/12/31 03:21:57;;;;;;;3.38;2.80;;;26.20;90.60;;;;;;6055673;23;20002;-93
2020/12/31 03:24:23;;;;;;;3.83;2.95;;;26.20;90.60;;;;;;6056715;23;20014;-93
2020/12/31 03:26:50;;;;;;;7.20;4.40;;;26.10;90.90;;;;;;6055844;23;20227;-94
2020/12/31 03:29:29;;;;;;;5.40;3.55;;;26.10;91.20;;;;;;6058336;23;19999;-95
2020/12/31 03:31:55;;;;;;;57.67;22.55;;;26.10;91.20;;;;;;6061800;23;19999;-93
2020/12/31 03:35:20;;;;;;;17.10;8.98;;;26.00;91.30;;;;;;6075856;23;20055;-93
2020/12/31 03:38:15;;;;;;;8.95;4.88;;;25.90;91.70;;;;;;6063899;23;20030;-94
2020/12/31 03:43:20;;;;;;;11.10;6.28;;;25.80;92.20;;;;;;6057782;23;20054;-93
2020/12/31 03:46:00;;;;;;;11.00;5.88;;;25.60;92.80;;;;;;6090877;23;20035;-94
2020/12/31 03:48:31;;;;;;;10.20;6.03;;;25.50;93.30;;;;;;6069593;23;20029;-95
2020/12/31 03:51:27;;;;;;;9.07;6.25;;;25.40;93.60;;;;;;6067476;23;19995;-92
2020/12/31 03:53:55;;;;;;;9.48;7.00;;;25.30;93.40;;;;;;6071608;23;20002;-96
2020/12/31 03:56:43;;;;;;;;;;;;;;;;;;;;;
2020/12/31 03:59:13;;;;;;;8.93;7.03;;;24.80;93.70;;;;;;6066948;23;20007;-95
2020/12/31 04:01:45;;;;;;;12.93;7.63;;;24.80;94.00;;;;;;6066591;23;19995;-89
2020/12/31 04:04:12;;;;;;;17.08;10.82;;;24.60;93.90;;;;;;6043357;23;19992;-90
2020/12/31 04:06:39;;;;;;;13.55;9.95;;;24.50;94.30;;;;;;6067329;23;20007;-86
2020/12/31 04:09:12;;;;;;;14.85;10.63;;;24.40;93.90;;;;;;6055151;23;20022;-87
2020/12/31 04:11:44;;;;;;;14.48;11.00;;;24.40;93.90;;;;;;6031508;23;20023;-86
2020/12/31 04:14:12;;;;;;;17.23;11.35;;;24.40;93.50;;;;;;6052840;23;19999;-86
2020/12/31 04:16:38;;;;;;;17.27;13.48;;;24.40;94.20;;;;;;6054770;23;20006;-86
2020/12/31 04:19:05;;;;;;;15.52;10.70;;;24.30;94.60;;;;;;6029499;23;20047;-86
2020/12/31 04:21:32;;;;;;;15.77;11.32;;;24.30;94.60;;;;;;6029957;23;20051;-86
2020/12/31 04:23:58;;;;;;;18.55;14.60;;;24.20;94.80;;;;;;6029260;23;20006;-87
2020/12/31 04:26:25;;;;;;;21.15;14.18;;;24.20;94.80;;;;;;6028397;23;20003;-89
2020/12/31 04:29:23;;;;;;;26.08;14.18;;;24.10;95.20;;;;;;6027090;23;20279;-91
2020/12/31 04:31:54;;;;;;;18.17;12.52;;;24.10;95.70;;;;;;6016172;23;20011;-89
2020/12/31 04:34:21;;;;;;;18.15;11.95;;;24.10;95.30;;;;;;6054574;23;20039;-92
2020/12/31 04:36:47;;;;;;;16.35;12.38;;;24.00;95.20;;;;;;6026682;23;20060;-91
2020/12/31 04:39:14;;;;;;;13.07;10.48;;;24.00;95.20;;;;;;6025211;23;20188;-90
2020/12/31 04:41:41;;;;;;;17.92;14.43;;;24.00;95.20;;;;;;6053247;23;19991;-89
2020/12/31 04:44:07;;;;;;;15.68;12.48;;;24.00;95.40;;;;;;6027368;23;19995;-89
2020/12/31 04:46:36;;;;;;;11.80;10.32;;;24.00;95.30;;;;;;6051453;23;20027;-90
2020/12/31 04:49:19;;;;;;;13.40;10.38;;;24.00;95.20;;;;;;6026295;23;20004;-90
2020/12/31 04:51:49;;;;;;;12.18;10.73;;;24.00;95.10;;;;;;6026258;23;20011;-91
2020/12/31 04:54:16;;;;;;;11.38;9.88;;;24.00;95.20;;;;;;6050262;23;20302;-88
2020/12/31 04:56:43;;;;;;;11.52;9.45;;;24.00;95.30;;;;;;6050775;23;20290;-90
2020/12/31 04:59:11;;;;;;;12.70;8.02;;;23.90;95.50;;;;;;6040251;23;20019;-90
2020/12/31 05:01:47;;;;;;;10.88;8.18;;;23.90;95.50;;;;;;6049414;23;20019;-89
2020/12/31 05:04:14;;;;;;;8.63;5.75;;;23.90;95.70;;;;;;6050535;23;19999;-91
2020/12/31 05:06:42;;;;;;;7.85;5.38;;;23.90;95.40;;;;;;6050086;23;20008;-90
2020/12/31 05:09:19;;;;;;;7.43;5.68;;;23.90;95.50;;;;;;6048489;23;19999;-91
2020/12/31 05:11:51;;;;;;;6.03;4.78;;;23.90;95.50;;;;;;6049833;23;20004;-89
2020/12/31 05:14:37;;;;;;;9.68;6.03;;;23.90;95.40;;;;;;6050532;23;20014;-89
2020/12/31 05:17:16;;;;;;;7.35;6.57;;;23.90;95.30;;;;;;6048323;23;20000;-89
2020/12/31 05:19:45;;;;;;;10.18;7.13;;;24.00;95.20;;;;;;6049739;23;20027;-87
2020/12/31 05:22:19;;;;;;;8.02;6.50;;;24.10;95.30;;;;;;6050636;23;20023;-89
2020/12/31 05:24:51;;;;;;;7.05;5.45;;;24.10;95.10;;;;;;6050997;23;20152;-90
2020/12/31 05:27:17;;;;;;;7.80;5.18;;;24.00;95.20;;;;;;6050838;23;20004;-91
2020/12/31 05:30:06;;;;;;;5.30;4.40;;;24.00;95.40;;;;;;6051345;23;20010;-91
2020/12/31 05:32:35;;;;;;;5.03;4.30;;;24.10;95.10;;;;;;6051273;23;20007;-90
2020/12/31 05:35:13;;;;;;;5.40;3.38;;;24.10;95.10;;;;;;6050920;23;20022;-90
2020/12/31 05:37:41;;;;;;;5.90;3.47;;;24.10;95.00;;;;;;6052085;23;20011;-90
2020/12/31 05:40:10;;;;;;;5.25;3.58;;;24.20;95.10;;;;;;6051856;23;20011;-91
2020/12/31 05:42:39;;;;;;;4.20;3.53;;;24.10;95.00;;;;;;6027382;23;20035;-89
2020/12/31 05:45:17;;;;;;;16.73;5.78;;;24.10;95.20;;;;;;6051882;23;20043;-90
2020/12/31 05:47:48;;;;;;;9.77;4.68;;;24.00;95.30;;;;;;6050755;23;20165;-90
2020/12/31 05:50:24;;;;;;;10.33;4.80;;;24.00;95.00;;;;;;6050802;23;20027;-89
2020/12/31 05:52:52;;;;;;;5.85;4.07;;;24.20;94.70;;;;;;6051391;23;20001;-89
2020/12/31 05:55:22;;;;;;;7.93;4.88;;;24.20;94.70;;;;;;6054863;23;20213;-87
2020/12/31 05:57:56;;;;;;;7.57;5.10;;;24.20;95.60;;;;;;6056763;23;20006;-89
2020/12/31 06:00:31;;;;;;;16.35;6.57;;;24.20;94.80;;;;;;6051899;23;20195;-85
2020/12/31 06:03:02;;;;;;;6.97;4.50;;;24.20;95.30;;;;;;6051866;23;20066;-91
2020/12/31 06:05:29;;;;;;;6.57;5.57;;;23.90;95.90;;;;;;6054150;23;19999;-89
2020/12/31 06:07:58;;;;;;;7.03;4.80;;;23.70;96.50;;;;;;6052521;23;19999;-89
2020/12/31 06:10:33;;;;;;;6.00;4.93;;;23.50;97.00;;;;;;6052646;23;20006;-84
2020/12/31 06:13:07;;;;;;;7.97;4.97;;;23.60;97.10;;;;;;6051830;23;20007;-91
2020/12/31 06:15:46;;;;;;;7.65;5.82;;;23.60;96.90;;;;;;6051957;23;20054;-85
2020/12/31 06:18:20;;;;;;;8.60;4.97;;;23.70;97.00;;;;;;6051664;23;20232;-90
2020/12/31 06:21:04;;;;;;;15.35;5.72;;;23.80;96.70;;;;;;6053595;23;20019;-89
2020/12/31 06:23:43;;;;;;;7.65;5.60;;;24.00;96.10;;;;;;6055075;23;20023;-91
2020/12/31 06:26:13;;;;;;;15.35;5.93;;;23.90;96.10;;;;;;6051066;23;20047;-91
2020/12/31 06:28:45;;;;;;;36.17;8.52;;;24.00;96.20;;;;;;6055497;23;20023;-85
2020/12/31 06:31:13;;;;;;;30.17;7.65;;;24.10;95.70;;;;;;6056050;23;20284;-89
2020/12/31 06:33:49;;;;;;;10.85;5.72;;;24.30;95.30;;;;;;6051206;23;20070;-91
2020/12/31 06:36:35;;;;;;;17.42;7.20;;;24.30;95.30;;;;;;6054184;23;20208;-90
2020/12/31 06:39:03;;;;;;;52.65;8.25;;;24.40;96.00;;;;;;6052840;23;20263;-89
2020/12/31 06:42:01;;;;;;;38.85;8.77;;;24.40;95.50;;;;;;6049522;23;19999;-87
2020/12/31 06:44:31;;;;;;;30.15;8.45;;;24.40;95.30;;;;;;6054872;23;20006;-90
2020/12/31 06:47:04;;;;;;;27.42;7.65;;;24.40;95.20;;;;;;6050582;23;19999;-88
2020/12/31 06:50:00;;;;;;;29.65;7.72;;;24.40;95.40;;;;;;6052801;23;20034;-88
2020/12/31 07:00:30;;;;;;;15.43;7.10;;;24.30;95.50;;;;;;6101610;23;20224;-90
2020/12/31 07:02:57;;;;;;;11.82;6.22;;;24.30;95.50;;;;;;6090394;23;20010;-92
2020/12/31 07:15:14;;;;;;;12.60;6.38;;;24.20;95.60;;;;;;6054538;23;20113;-89
2020/12/31 07:17:46;;;;;;;6.28;4.70;;;24.20;95.60;;;;;;6055284;23;20032;-92
2020/12/31 07:20:18;;;;;;;5.63;4.80;;;24.10;95.80;;;;;;6054499;23;20003;-89
2020/12/31 07:31:45;;;;;;;7.03;5.25;;;24.10;96.00;;;;;;6061844;23;20018;-89
2020/12/31 07:34:37;;;;;;;9.00;5.32;;;24.10;95.90;;;;;;6087011;23;20026;-92
2020/12/31 07:37:12;;;;;;;7.28;5.55;;;24.00;96.00;;;;;;6038459;23;20007;-91
2020/12/31 07:40:12;;;;;;;7.82;5.75;;;24.10;96.00;;;;;;6082425;23;20006;-82
2020/12/31 07:42:50;;;;;;;6.07;4.90;;;24.00;96.30;;;;;;5999888;23;20000;-89
2020/12/31 07:45:19;;;;;;;8.57;4.95;;;24.00;96.20;;;;;;5934951;23;20014;-91
2020/12/31 07:47:54;;;;;;;5.82;3.63;;;24.00;96.10;;;;;;5997297;23;20000;-93
2020/12/31 07:50:25;;;;;;;5.90;4.35;;;24.00;96.10;;;;;;5992474;23;20051;-85
2020/12/31 07:53:51;;;;;;;4.88;4.38;;;23.90;96.00;;;;;;6034375;23;20004;-88
2020/12/31 08:05:42;;;;;;;16.20;5.53;;;24.10;95.70;;;;;;6087616;23;20019;-89
2020/12/31 08:21:49;;;;;;;6.88;5.40;;;24.30;95.30;;;;;;6051803;23;20108;-91
2020/12/31 08:24:21;;;;;;;6.55;5.20;;;24.30;95.50;;;;;;6051235;23;20007;-91
2020/12/31 08:26:58;;;;;;;5.90;4.95;;;24.30;95.60;;;;;;6027110;23;20153;-91
2020/12/31 08:29:28;;;;;;;5.82;5.07;;;24.20;95.80;;;;;;6049381;23;20007;-91
2020/12/31 08:31:59;;;;;;;5.45;4.43;;;24.10;95.90;;;;;;6049322;23;20066;-90
2020/12/31 08:34:26;;;;;;;5.93;4.80;;;24.10;96.00;;;;;;6025730;23;20003;-93
2020/12/31 08:36:56;;;;;;;6.68;4.15;;;24.10;96.10;;;;;;6024452;23;20050;-90
2020/12/31 08:39:23;;;;;;;5.57;4.28;;;24.00;96.10;;;;;;6047879;23;20056;-90
2020/12/31 08:42:13;;;;;;;6.47;4.80;;;23.80;96.00;;;;;;6050546;23;20091;-94
2020/12/31 08:45:14;;;;;;;6.25;4.30;;;23.80;96.00;;;;;;6030266;23;20007;-94
2020/12/31 08:47:40;;;;;;;5.80;4.65;;;23.80;95.90;;;;;;5915428;24;20290;-89
2020/12/31 08:50:16;;;;;;;7.65;4.80;;;23.90;95.70;;;;;;5939597;24;20016;-89
2020/12/31 08:52:49;;;;;;;6.22;4.95;;;23.80;95.60;;;;;;5939804;24;19997;-88
2020/12/31 08:55:18;;;;;;;6.40;4.90;;;23.80;95.60;;;;;;5941507;24;20005;-88
2020/12/31 08:58:09;;;;;;;8.52;5.05;;;23.80;95.50;;;;;;5920357;24;20009;-91
2020/12/31 09:00:39;;;;;;;7.22;5.20;;;23.80;95.70;;;;;;6020034;23;20076;-87
2020/12/31 09:17:53;;;;;;;8.48;4.75;;;23.80;96.10;;;;;;6100724;23;20058;-88
2020/12/31 09:20:28;;;;;;;10.63;5.57;;;23.80;96.20;;;;;;6114187;23;20221;-89
2020/12/31 09:23:08;;;;;;;9.18;5.20;;;23.80;96.00;;;;;;6110989;23;20195;-88
2020/12/31 09:25:48;;;;;;;6.32;4.70;;;23.70;96.20;;;;;;6086108;23;20220;-88
2020/12/31 09:28:16;;;;;;;7.78;5.75;;;23.70;96.40;;;;;;6084390;23;20313;-90
2020/12/31 09:30:44;;;;;;;7.38;5.75;;;23.70;95.80;;;;;;6083915;23;20003;-90
2020/12/31 09:33:22;;;;;;;5.57;4.72;;;23.70;95.80;;;;;;6085093;23;20026;-91
2020/12/31 09:36:26;;;;;;;7.13;5.40;;;23.70;95.70;;;;;;6061524;23;20014;-90
2020/12/31 09:38:53;;;;;;;7.20;5.53;;;23.70;95.90;;;;;;6110106;23;19999;-89
2020/12/31 09:41:23;;;;;;;7.38;5.97;;;23.80;95.60;;;;;;6109193;23;20018;-90
2020/12/31 09:43:51;;;;;;;8.85;5.53;;;23.90;95.80;;;;;;6084967;23;20054;-89
2020/12/31 09:46:19;;;;;;;10.25;6.85;;;23.90;96.20;;;;;;6109387;23;19999;-88
2020/12/31 09:48:50;;;;;;;9.70;5.93;;;24.00;95.70;;;;;;6084285;23;20002;-88
2020/12/31 09:51:18;;;;;;;8.15;5.40;;;24.00;95.30;;;;;;6110811;23;20026;-89
2020/12/31 09:53:48;;;;;;;7.47;5.57;;;23.90;95.80;;;;;;6061496;23;20183;-90
2020/12/31 09:56:18;;;;;;;8.45;5.13;;;23.90;95.70;;;;;;6084619;23;20010;-89
2020/12/31 09:58:47;;;;;;;7.15;5.53;;;23.80;95.80;;;;;;6087097;23;20006;-87
2020/12/31 10:01:36;;;;;;;8.95;5.85;;;23.70;95.90;;;;;;6068516;23;20053;-90
2020/12/31 10:04:17;;;;;;;6.13;4.95;;;23.70;95.90;;;;;;6114563;23;20003;-89
2020/12/31 10:06:49;;;;;;;6.13;5.00;;;23.70;95.60;;;;;;6086653;23;20219;-90
2020/12/31 10:09:18;;;;;;;7.70;5.43;;;23.70;95.60;;;;;;6113412;23;20029;-92
2020/12/31 10:11:57;;;;;;;7.20;5.30;;;23.70;95.70;;;;;;6111355;23;20006;-87
2020/12/31 10:14:23;;;;;;;5.90;4.60;;;23.60;95.60;;;;;;6084475;23;20013;-90
2020/12/31 10:16:57;;;;;;;7.68;5.13;;;23.70;95.60;;;;;;6111366;23;20007;-89
2020/12/31 10:19:28;;;;;;;6.35;4.95;;;23.60;95.50;;;;;;6111975;23;20278;-89
2020/12/31 10:21:57;;;;;;;7.28;5.13;;;23.60;95.60;;;;;;6084932;23;20006;-88
2020/12/31 10:24:23;;;;;;;6.72;4.80;;;23.60;95.60;;;;;;6109963;23;19986;-88
2020/12/31 10:26:52;;;;;;;6.82;5.20;;;23.60;95.60;;;;;;6112841;23;19998;-91
2020/12/31 10:29:26;;;;;;;9.17;4.90;;;23.50;95.70;;;;;;6087455;23;20002;-88
2020/12/31 10:32:05;;;;;;;6.85;5.68;;;23.50;95.70;;;;;;6066140;23;20006;-89
2020/12/31 10:34:40;;;;;;;5.38;4.18;;;23.60;95.70;;;;;;6084680;23;20014;-88
2020/12/31 10:37:13;;;;;;;7.05;4.75;;;23.60;95.40;;;;;;6111417;23;20014;-88
2020/12/31 10:40:01;;;;;;;6.30;5.32;;;23.60;95.40;;;;;;6085457;23;19994;-90
2020/12/31 10:42:36;;;;;;;6.30;4.60;;;23.50;95.50;;;;;;6112764;23;20003;-87
2020/12/31 10:45:13;;;;;;;6.15;4.40;;;23.50;95.10;;;;;;6067854;23;19998;-88
2020/12/31 10:48:08;;;;;;;5.18;4.15;;;23.50;95.40;;;;;;6113694;23;20006;-87
2020/12/31 10:50:39;;;;;;;6.43;4.35;;;23.50;95.20;;;;;;6115405;23;19998;-90
2020/12/31 10:53:08;;;;;;;8.13;5.22;;;23.60;95.10;;;;;;6082300;23;20006;-92
2020/12/31 10:55:38;;;;;;;8.63;5.22;;;23.50;95.40;;;;;;6109670;23;20065;-88
2020/12/31 10:58:10;;;;;;;7.68;5.78;;;23.60;95.40;;;;;;6085697;23;20003;-87
2020/12/31 11:00:50;;;;;;;7.80;5.63;;;23.60;95.50;;;;;;6105156;23;20006;-87
2020/12/31 11:03:41;;;;;;;6.07;4.88;;;23.60;95.80;;;;;;6088931;23;19994;-89
2020/12/31 11:06:44;;;;;;;6.78;5.00;;;23.60;95.70;;;;;;6055107;23;20051;-86
2020/12/31 11:09:11;;;;;;;7.78;5.00;;;23.60;95.80;;;;;;6027242;23;20027;-91
2020/12/31 11:11:39;;;;;;;6.97;4.97;;;23.70;95.60;;;;;;6051166;23;20027;-90
2020/12/31 11:14:08;;;;;;;8.65;4.85;;;23.70;95.80;;;;;;6027088;23;20010;-88
2020/12/31 11:16:35;;;;;;;11.35;7.28;;;23.70;96.00;;;;;;6027725;23;20083;-90
2020/12/31 11:19:29;;;;;;;17.15;8.20;;;23.60;96.00;;;;;;6028646;23;20014;-85
2020/12/31 11:22:43;;;;;;;7.72;4.90;;;23.60;96.10;;;;;;5972724;24;20054;-85
2020/12/31 11:25:38;;;;;;;8.85;4.75;;;23.60;96.10;;;;;;5974893;23;20033;-86
2020/12/31 11:28:12;;;;;;;6.45;4.90;;;23.60;96.20;;;;;;5971395;24;20004;-90
2020/12/31 11:30:41;;;;;;;9.80;5.47;;;23.50;96.50;;;;;;5946067;24;20001;-87
2020/12/31 11:33:07;;;;;;;6.95;5.03;;;23.50;96.60;;;;;;5968660;24;20004;-90
2020/12/31 11:35:37;;;;;;;6.50;4.72;;;23.50;96.60;;;;;;5946119;24;20000;-87
2020/12/31 11:38:04;;;;;;;6.55;4.43;;;23.50;96.50;;;;;;5969878;24;20110;-90
2020/12/31 11:40:33;;;;;;;5.90;3.78;;;23.50;96.40;;;;;;5924207;24;20007;-89
2020/12/31 11:43:00;;;;;;;12.25;4.28;;;23.50;96.60;;;;;;5946037;24;20005;-86
2020/12/31 11:45:30;;;;;;;6.13;4.45;;;23.50;96.70;;;;;;5970372;24;20017;-88
2020/12/31 11:48:17;;;;;;;5.68;4.03;;;23.40;97.20;;;;;;5970243;24;20008;-90
2020/12/31 11:50:45;;;;;;;4.82;3.78;;;23.40;97.40;;;;;;5968722;24;20081;-89
2020/12/31 11:53:13;;;;;;;5.20;4.30;;;23.50;97.30;;;;;;5972122;23;20035;-88
2020/12/31 11:55:41;;;;;;;7.18;4.63;;;23.50;97.20;;;;;;5957391;23;20008;-90
2020/12/31 11:58:16;;;;;;;5.07;4.00;;;23.50;97.20;;;;;;6025727;23;20049;-87
2020/12/31 12:00:46;;;;;;;6.07;4.47;;;23.60;97.20;;;;;;6028249;23;20052;-88
2020/12/31 12:03:20;;;;;;;5.15;3.95;;;23.60;97.10;;;;;;6023694;23;20012;-91
2020/12/31 12:05:54;;;;;;;4.53;3.90;;;23.60;97.10;;;;;;6022714;23;20000;-92
2020/12/31 12:08:39;;;;;;;5.40;4.22;;;23.60;97.20;;;;;;6004072;23;20287;-88
2020/12/31 12:11:32;;;;;;;5.57;4.45;;;23.60;97.10;;;;;;6035918;23;20007;-84
2020/12/31 12:14:20;;;;;;;;;;;23.60;97.10;;;;;;6119442;23;19995;-94
2020/12/31 12:17:37;;;;;;;6.50;4.20;;;23.50;96.40;;;;;;5970016;24;20226;-86
2020/12/31 12:20:31;;;;;;;6.22;4.40;;;23.60;96.10;;;;;;5949764;24;20064;-86
2020/12/31 12:23:14;;;;;;;5.00;4.22;;;23.60;96.20;;;;;;5974089;24;20005;-85
2020/12/31 12:33:43;;;;;;;6.63;5.72;;;23.70;96.10;;;;;;6079579;23;19916;-91
2020/12/31 12:36:22;;;;;;;5.00;4.50;;;23.70;96.00;;;;;;6066883;23;20192;-88
2020/12/31 12:39:44;;;;;;;6.28;4.78;;;23.70;95.90;;;;;;6045899;23;20006;-92
2020/12/31 12:42:16;;;;;;;6.68;4.78;;;23.60;96.00;;;;;;6094465;23;20003;-85
2020/12/31 13:06:19;;;;;;;17.38;12.48;;;23.80;96.50;;;;;;6038693;23;20014;-88
2020/12/31 13:09:14;;;;;;;11.05;9.32;;;23.90;96.20;;;;;;6007026;23;20008;-94
2020/12/31 13:11:44;;;;;;;11.32;8.43;;;24.00;96.20;;;;;;6033868;23;20056;-90
2020/12/31 13:14:14;;;;;;;9.27;6.80;;;24.00;96.20;;;;;;6012405;23;20052;-89
2020/12/31 13:16:44;;;;;;;9.35;6.32;;;24.00;96.10;;;;;;6034395;23;20056;-89
2020/12/31 13:19:30;;;;;;;7.97;4.97;;;24.00;96.10;;;;;;6034718;23;19988;-89
2020/12/31 13:22:04;;;;;;;7.32;4.88;;;23.90;96.00;;;;;;6064440;23;20019;-89
2020/12/31 13:24:31;;;;;;;6.40;3.88;;;23.90;95.90;;;;;;6018455;23;20091;-88
2020/12/31 13:26:59;;;;;;;3.83;3.28;;;23.80;95.90;;;;;;6066941;23;20090;-89
2020/12/31 13:29:26;;;;;;;5.30;3.53;;;23.80;95.90;;;;;;6061885;23;20006;-90
2020/12/31 13:31:52;;;;;;;5.90;3.40;;;23.80;95.80;;;;;;6065391;23;20011;-87
2020/12/31 13:34:22;;;;;;;4.18;3.35;;;23.80;95.80;;;;;;6090439;23;20299;-90
2020/12/31 13:36:52;;;;;;;5.13;4.25;;;23.70;96.00;;;;;;6089023;23;20019;-87
2020/12/31 13:39:21;;;;;;;6.20;3.90;;;23.70;96.10;;;;;;6058025;23;20011;-92
2020/12/31 13:41:48;;;;;;;5.50;4.25;;;23.50;96.40;;;;;;6037320;23;20205;-90
2020/12/31 13:44:20;;;;;;;7.00;4.28;;;23.60;96.60;;;;;;6013127;23;19999;-87
2020/12/31 13:46:57;;;;;;;6.22;4.32;;;23.60;96.50;;;;;;6063890;23;20003;-84
2020/12/31 13:49:44;;;;;;;6.78;4.03;;;23.60;96.70;;;;;;6060689;23;20014;-92
2020/12/31 13:52:11;;;;;;;7.22;4.50;;;23.50;96.90;;;;;;6019352;23;19999;-86
2020/12/31 13:55:10;;;;;;;7.03;5.22;;;23.50;96.90;;;;;;6100554;23;20066;-84
2020/12/31 13:57:41;;;;;;;7.65;4.82;;;23.40;96.90;;;;;;6125820;23;20018;-86
2020/12/31 14:00:11;;;;;;;7.72;4.97;;;23.30;96.90;;;;;;6099608;23;20002;-85
2020/12/31 14:03:12;;;;;;;5.70;4.00;;;23.40;97.20;;;;;;6097571;23;19998;-88
2020/12/31 14:28:00;;;;;;;3.13;2.40;;;23.00;97.50;;;;;;6043530;23;20307;-94
2020/12/31 14:30:35;;;;;;;2.30;1.90;;;23.00;97.60;;;;;;6041643;23;20798;-92
2020/12/31 14:35:38;;;;;;;4.75;2.17;;;23.00;97.70;;;;;;6109983;23;20230;-83
2020/12/31 14:38:15;;;;;;;3.42;2.22;;;22.90;97.50;;;;;;6097853;23;20042;-94
2020/12/31 14:40:58;;;;;;;2.03;1.77;;;22.90;97.70;;;;;;6072661;23;20010;-88
2020/12/31 14:43:27;;;;;;;3.13;2.05;;;23.00;97.70;;;;;;6095046;23;20010;-95
2020/12/31 14:48:30;;;;;;;3.63;2.50;;;22.90;97.40;;;;;;6074707;23;20059;-85
2020/12/31 14:50:58;;;;;;;2.72;2.20;;;23.00;97.90;;;;;;6068374;23;20007;-89
2020/12/31 14:53:26;;;;;;;2.75;2.05;;;22.90;97.90;;;;;;6094208;23;19999;-85
2020/12/31 14:55:52;;;;;;;4.22;2.58;;;22.90;97.90;;;;;;6066296;23;20007;-87
2020/12/31 14:58:19;;;;;;;2.70;2.38;;;22.90;97.70;;;;;;6069773;23;20022;-85
2020/12/31 15:00:46;;;;;;;3.65;2.42;;;22.90;97.70;;;;;;6068668;23;20096;-86
2020/12/31 15:03:14;;;;;;;3.15;2.20;;;22.90;97.50;;;;;;6048248;23;19999;-88
2020/12/31 15:05:53;;;;;;;3.03;2.28;;;22.90;97.00;;;;;;6059641;23;20019;-90
2020/12/31 15:08:22;;;;;;;2.95;2.40;;;23.00;97.10;;;;;;6050401;23;20035;-90
2020/12/31 15:10:49;;;;;;;2.95;2.08;;;23.00;97.30;;;;;;6038929;23;20004;-94
2020/12/31 15:13:16;;;;;;;5.05;2.63;;;23.10;97.10;;;;;;6063481;23;20007;-86
2020/12/31 15:15:48;;;;;;;6.15;2.67;;;23.20;97.70;;;;;;6053980;23;20078;-85
2020/12/31 15:23:35;;;;;;;2.92;2.58;;;23.30;97.50;;;;;;6088042;23;20011;-88
2020/12/31 15:26:06;;;;;;;4.38;3.47;;;23.40;97.50;;;;;;6071246;23;20003;-84
2020/12/31 15:29:04;;;;;;;4.35;3.55;;;23.50;97.30;;;;;;6070349;23;20014;-89
2020/12/31 15:32:01;;;;;;;3.78;3.00;;;23.50;97.20;;;;;;6071593;23;20100;-85
2020/12/31 15:44:22;;;;;;;3.80;3.40;;;23.50;96.90;;;;;;6065644;23;20017;-95
2020/12/31 15:49:46;;;;;;;9.35;6.47;;;23.50;97.10;;;;;;6113034;23;20018;-94
2020/12/31 15:52:29;;;;;;;8.82;7.93;;;23.50;97.40;;;;;;6124895;23;19999;-91
2020/12/31 15:54:58;;;;;;;5.65;5.07;;;23.50;97.50;;;;;;6092241;23;20014;-82
2020/12/31 15:57:24;;;;;;;7.45;6.38;;;23.50;97.30;;;;;;6099698;23;20010;-92
2020/12/31 16:02:31;;;;;;;6.05;4.85;;;23.60;97.20;;;;;;6051743;23;20011;-92
2020/12/31 16:14:39;;;;;;;5.20;3.60;;;24.00;97.80;;;;;;6030949;23;20248;-96
2020/12/31 16:17:07;;;;;;;16.95;12.07;;;24.00;97.30;;;;;;6070540;23;20066;-85
2020/12/31 16:25:12;;;;;;;4.20;3.78;;;24.30;96.00;;;;;;6095748;23;19953;-91
2020/12/31 16:27:38;;;;;;;3.47;2.50;;;24.60;95.40;;;;;;6099155;23;20014;-91
2020/12/31 16:30:12;;;;;;;8.07;2.80;;;24.70;94.40;;;;;;6098633;23;19998;-93
2020/12/31 16:32:53;;;;;;;6.22;3.10;;;24.80;94.60;;;;;;6124988;23;19994;-94
2020/12/31 16:35:22;;;;;;;5.05;2.97;;;24.90;94.50;;;;;;6099804;23;19991;-92
2020/12/31 16:37:58;;;;;;;2.10;1.70;;;25.00;94.30;;;;;;6099836;23;20041;-92